sensor_id;sensor_type;location;lat;lon;timestamp;temperature;humidity
77839;SHT31;67034;43.226;27.932;2023-07-31T00:01:20;20.45;80.96
77839;SHT31;67034;43.226;27.932;2023-07-31T00:03:45;20.41;81.23
77839;SHT31;67034;43.226;27.932;2023-07-31T00:06:13;20.43;81.24
77839;SHT31;67034;43.226;27.932;2023-07-31T00:08:39;20.41;81.23
77839;SHT31;67034;43.226;27.932;2023-07-31T00:11:04;20.45;81.18
77839;SHT31;67034;43.226;27.932;2023-07-31T00:13:30;20.42;81.05
77839;SHT31;67034;43.226;27.932;2023-07-31T00:15:56;20.36;81.17
77839;SHT31;67034;43.226;27.932;2023-07-31T00:18:21;20.35;81.31
77839;SHT31;67034;43.226;27.932;2023-07-31T00:20:47;20.29;81.36
77839;SHT31;67034;43.226;27.932;2023-07-31T00:23:14;20.29;81.43
77839;SHT31;67034;43.226;27.932;2023-07-31T00:25:40;20.34;81.52
77839;SHT31;67034;43.226;27.932;2023-07-31T00:28:06;20.35;81.43
77839;SHT31;67034;43.226;27.932;2023-07-31T00:30:31;20.35;81.30
77839;SHT31;67034;43.226;27.932;2023-07-31T00:32:57;20.38;81.36
77839;SHT31;67034;43.226;27.932;2023-07-31T00:35:23;20.41;81.29
77839;SHT31;67034;43.226;27.932;2023-07-31T00:37:49;20.43;81.25
77839;SHT31;67034;43.226;27.932;2023-07-31T00:40:16;20.41;81.16
77839;SHT31;67034;43.226;27.932;2023-07-31T00:42:41;20.34;81.19
77839;SHT31;67034;43.226;27.932;2023-07-31T00:45:08;20.28;81.27
77839;SHT31;67034;43.226;27.932;2023-07-31T00:47:34;20.31;81.37
77839;SHT31;67034;43.226;27.932;2023-07-31T00:49:59;20.32;81.28
77839;SHT31;67034;43.226;27.932;2023-07-31T00:52:25;20.26;81.18
77839;SHT31;67034;43.226;27.932;2023-07-31T00:54:51;20.22;81.43
77839;SHT31;67034;43.226;27.932;2023-07-31T00:57:18;20.22;81.46
77839;SHT31;67034;43.226;27.932;2023-07-31T00:59:44;20.35;81.50
77839;SHT31;67034;43.226;27.932;2023-07-31T01:02:12;20.46;81.26
77839;SHT31;67034;43.226;27.932;2023-07-31T01:04:37;20.41;81.02
77839;SHT31;67034;43.226;27.932;2023-07-31T01:07:10;20.32;81.01
77839;SHT31;67034;43.226;27.932;2023-07-31T01:09:40;20.38;81.10
77839;SHT31;67034;43.226;27.932;2023-07-31T01:12:09;20.36;80.99
77839;SHT31;67034;43.226;27.932;2023-07-31T01:14:39;20.31;80.99
77839;SHT31;67034;43.226;27.932;2023-07-31T01:17:05;20.26;81.15
77839;SHT31;67034;43.226;27.932;2023-07-31T01:19:31;20.26;81.36
77839;SHT31;67034;43.226;27.932;2023-07-31T01:22:10;20.35;81.33
77839;SHT31;67034;43.226;27.932;2023-07-31T01:24:49;20.51;81.19
77839;SHT31;67034;43.226;27.932;2023-07-31T01:27:21;20.55;80.90
77839;SHT31;67034;43.226;27.932;2023-07-31T01:29:53;20.49;80.78
77839;SHT31;67034;43.226;27.932;2023-07-31T01:32:22;20.41;80.76
77839;SHT31;67034;43.226;27.932;2023-07-31T01:34:48;20.31;80.91
77839;SHT31;67034;43.226;27.932;2023-07-31T01:37:14;20.25;81.18
77839;SHT31;67034;43.226;27.932;2023-07-31T01:39:40;20.26;81.28
77839;SHT31;67034;43.226;27.932;2023-07-31T01:42:06;20.31;81.41
77839;SHT31;67034;43.226;27.932;2023-07-31T01:44:34;20.35;81.24
77839;SHT31;67034;43.226;27.932;2023-07-31T01:47:00;20.49;80.82
77839;SHT31;67034;43.226;27.932;2023-07-31T01:49:25;20.55;80.60
77839;SHT31;67034;43.226;27.932;2023-07-31T01:51:51;20.68;80.06
77839;SHT31;67034;43.226;27.932;2023-07-31T01:54:17;20.77;79.60
77839;SHT31;67034;43.226;27.932;2023-07-31T01:56:43;20.75;79.39
77839;SHT31;67034;43.226;27.932;2023-07-31T01:59:08;20.59;79.59
77839;SHT31;67034;43.226;27.932;2023-07-31T02:01:35;20.46;79.97
77839;SHT31;67034;43.226;27.932;2023-07-31T02:04:01;20.42;80.12
77839;SHT31;67034;43.226;27.932;2023-07-31T02:06:27;20.32;80.45
77839;SHT31;67034;43.226;27.932;2023-07-31T02:08:52;20.29;80.83
77839;SHT31;67034;43.226;27.932;2023-07-31T02:11:18;20.41;81.02
77839;SHT31;67034;43.226;27.932;2023-07-31T02:13:44;20.45;80.98
77839;SHT31;67034;43.226;27.932;2023-07-31T02:16:10;20.66;81.47
77839;SHT31;67034;43.226;27.932;2023-07-31T02:18:37;20.84;81.31
77839;SHT31;67034;43.226;27.932;2023-07-31T02:21:02;20.94;80.81
77839;SHT31;67034;43.226;27.932;2023-07-31T02:23:28;20.94;80.25
77839;SHT31;67034;43.226;27.932;2023-07-31T02:25:54;20.83;79.91
77839;SHT31;67034;43.226;27.932;2023-07-31T02:28:20;20.68;79.89
77839;SHT31;67034;43.226;27.932;2023-07-31T02:30:45;20.51;79.95
77839;SHT31;67034;43.226;27.932;2023-07-31T02:33:14;20.35;80.20
77839;SHT31;67034;43.226;27.932;2023-07-31T02:35:42;20.25;80.36
77839;SHT31;67034;43.226;27.932;2023-07-31T02:38:08;20.15;80.63
77839;SHT31;67034;43.226;27.932;2023-07-31T02:40:33;20.04;80.94
77839;SHT31;67034;43.226;27.932;2023-07-31T02:42:59;20.07;81.26
77839;SHT31;67034;43.226;27.932;2023-07-31T02:45:25;20.13;81.57
77839;SHT31;67034;43.226;27.932;2023-07-31T02:47:51;20.26;81.47
77839;SHT31;67034;43.226;27.932;2023-07-31T02:50:17;20.39;81.39
77839;SHT31;67034;43.226;27.932;2023-07-31T02:52:44;20.45;81.29
77839;SHT31;67034;43.226;27.932;2023-07-31T02:55:09;20.34;81.10
77839;SHT31;67034;43.226;27.932;2023-07-31T02:57:35;20.20;81.37
77839;SHT31;67034;43.226;27.932;2023-07-31T03:00:01;20.25;81.67
77839;SHT31;67034;43.226;27.932;2023-07-31T03:02:26;20.34;81.36
77839;SHT31;67034;43.226;27.932;2023-07-31T03:04:52;20.34;81.38
77839;SHT31;67034;43.226;27.932;2023-07-31T03:07:18;20.51;81.20
77839;SHT31;67034;43.226;27.932;2023-07-31T03:09:45;20.51;80.87
77839;SHT31;67034;43.226;27.932;2023-07-31T03:12:11;20.52;80.88
77839;SHT31;67034;43.226;27.932;2023-07-31T03:14:37;20.53;80.69
77839;SHT31;67034;43.226;27.932;2023-07-31T03:17:03;20.56;80.64
77839;SHT31;67034;43.226;27.932;2023-07-31T03:19:30;20.53;80.67
77839;SHT31;67034;43.226;27.932;2023-07-31T03:21:56;20.59;80.46
77839;SHT31;67034;43.226;27.932;2023-07-31T03:24:22;20.56;80.36
77839;SHT31;67034;43.226;27.932;2023-07-31T03:26:49;20.49;80.64
77839;SHT31;67034;43.226;27.932;2023-07-31T03:29:15;20.39;80.78
77839;SHT31;67034;43.226;27.932;2023-07-31T03:31:40;20.42;81.09
77839;SHT31;67034;43.226;27.932;2023-07-31T03:34:08;20.49;80.99
77839;SHT31;67034;43.226;27.932;2023-07-31T03:36:34;20.49;81.04
77839;SHT31;67034;43.226;27.932;2023-07-31T03:38:59;20.55;81.10
77839;SHT31;67034;43.226;27.932;2023-07-31T03:41:25;20.61;81.06
77839;SHT31;67034;43.226;27.932;2023-07-31T03:43:52;20.75;80.96
77839;SHT31;67034;43.226;27.932;2023-07-31T03:46:20;20.79;80.80
77839;SHT31;67034;43.226;27.932;2023-07-31T03:48:45;20.86;80.59
77839;SHT31;67034;43.226;27.932;2023-07-31T03:51:11;20.93;80.54
77839;SHT31;67034;43.226;27.932;2023-07-31T03:53:37;20.97;80.36
77839;SHT31;67034;43.226;27.932;2023-07-31T03:56:03;20.99;80.48
77839;SHT31;67034;43.226;27.932;2023-07-31T03:58:28;21.04;80.57
77839;SHT31;67034;43.226;27.932;2023-07-31T04:00:55;21.21;80.13
77839;SHT31;67034;43.226;27.932;2023-07-31T04:03:21;21.35;79.87
77839;SHT31;67034;43.226;27.932;2023-07-31T04:05:47;21.24;79.81
77839;SHT31;67034;43.226;27.932;2023-07-31T04:08:13;21.23;80.00
77839;SHT31;67034;43.226;27.932;2023-07-31T04:10:38;21.23;80.21
77839;SHT31;67034;43.226;27.932;2023-07-31T04:13:04;21.28;80.14
77839;SHT31;67034;43.226;27.932;2023-07-31T04:15:30;21.35;80.24
77839;SHT31;67034;43.226;27.932;2023-07-31T04:17:57;21.51;80.07
77839;SHT31;67034;43.226;27.932;2023-07-31T04:20:22;21.65;79.90
77839;SHT31;67034;43.226;27.932;2023-07-31T04:22:48;21.82;79.47
77839;SHT31;67034;43.226;27.932;2023-07-31T04:25:17;22.05;79.00
77839;SHT31;67034;43.226;27.932;2023-07-31T04:27:42;22.20;78.63
77839;SHT31;67034;43.226;27.932;2023-07-31T04:30:09;22.36;78.45
77839;SHT31;67034;43.226;27.932;2023-07-31T04:32:34;22.47;78.43
77839;SHT31;67034;43.226;27.932;2023-07-31T04:35:02;22.77;78.03
77839;SHT31;67034;43.226;27.932;2023-07-31T04:37:28;22.91;77.58
77839;SHT31;67034;43.226;27.932;2023-07-31T04:39:53;22.98;77.09
77839;SHT31;67034;43.226;27.932;2023-07-31T04:42:19;23.15;76.67
77839;SHT31;67034;43.226;27.932;2023-07-31T04:44:45;23.30;75.94
77839;SHT31;67034;43.226;27.932;2023-07-31T04:47:10;23.32;75.56
77839;SHT31;67034;43.226;27.932;2023-07-31T04:49:36;23.30;75.25
77839;SHT31;67034;43.226;27.932;2023-07-31T04:52:04;23.46;74.97
77839;SHT31;67034;43.226;27.932;2023-07-31T04:54:30;23.69;73.93
77839;SHT31;67034;43.226;27.932;2023-07-31T04:56:55;23.47;74.40
77839;SHT31;67034;43.226;27.932;2023-07-31T04:59:21;23.45;74.55
77839;SHT31;67034;43.226;27.932;2023-07-31T05:01:47;23.52;74.45
77839;SHT31;67034;43.226;27.932;2023-07-31T05:04:13;23.53;74.27
77839;SHT31;67034;43.226;27.932;2023-07-31T05:06:39;23.52;74.15
77839;SHT31;67034;43.226;27.932;2023-07-31T05:09:07;23.63;73.88
77839;SHT31;67034;43.226;27.932;2023-07-31T05:11:34;23.71;73.46
77839;SHT31;67034;43.226;27.932;2023-07-31T05:14:00;23.78;73.13
77839;SHT31;67034;43.226;27.932;2023-07-31T05:16:26;24.00;72.68
77839;SHT31;67034;43.226;27.932;2023-07-31T05:18:51;24.24;72.03
77839;SHT31;67034;43.226;27.932;2023-07-31T05:21:17;24.36;70.93
77839;SHT31;67034;43.226;27.932;2023-07-31T05:23:43;24.42;70.45
77839;SHT31;67034;43.226;27.932;2023-07-31T05:26:12;24.45;70.54
77839;SHT31;67034;43.226;27.932;2023-07-31T05:28:38;24.48;70.19
77839;SHT31;67034;43.226;27.932;2023-07-31T05:31:04;24.59;69.97
77839;SHT31;67034;43.226;27.932;2023-07-31T05:33:30;24.69;69.31
77839;SHT31;67034;43.226;27.932;2023-07-31T05:35:59;24.82;68.51
77839;SHT31;67034;43.226;27.932;2023-07-31T05:38:25;24.93;68.00
77839;SHT31;67034;43.226;27.932;2023-07-31T05:40:54;25.00;67.27
77839;SHT31;67034;43.226;27.932;2023-07-31T05:43:21;25.13;66.97
77839;SHT31;67034;43.226;27.932;2023-07-31T05:45:47;25.18;66.72
77839;SHT31;67034;43.226;27.932;2023-07-31T05:48:13;25.27;66.66
77839;SHT31;67034;43.226;27.932;2023-07-31T05:50:38;25.27;66.41
77839;SHT31;67034;43.226;27.932;2023-07-31T05:53:05;25.41;66.35
77839;SHT31;67034;43.226;27.932;2023-07-31T05:55:31;25.49;65.30
77839;SHT31;67034;43.226;27.932;2023-07-31T05:57:56;25.47;65.35
77839;SHT31;67034;43.226;27.932;2023-07-31T06:00:24;25.65;65.38
77839;SHT31;67034;43.226;27.932;2023-07-31T06:02:49;25.62;65.15
77839;SHT31;67034;43.226;27.932;2023-07-31T06:05:15;25.48;65.22
77839;SHT31;67034;43.226;27.932;2023-07-31T06:07:41;25.72;64.76
77839;SHT31;67034;43.226;27.932;2023-07-31T06:10:07;25.82;64.10
77839;SHT31;67034;43.226;27.932;2023-07-31T06:12:34;25.92;62.64
77839;SHT31;67034;43.226;27.932;2023-07-31T06:15:00;26.10;62.56
77839;SHT31;67034;43.226;27.932;2023-07-31T06:17:27;26.33;61.82
77839;SHT31;67034;43.226;27.932;2023-07-31T06:19:53;26.63;61.33
77839;SHT31;67034;43.226;27.932;2023-07-31T06:22:18;26.68;59.39
77839;SHT31;67034;43.226;27.932;2023-07-31T06:24:44;26.75;58.72
77839;SHT31;67034;43.226;27.932;2023-07-31T06:27:10;26.78;57.90
77839;SHT31;67034;43.226;27.932;2023-07-31T06:29:36;26.85;58.07
77839;SHT31;67034;43.226;27.932;2023-07-31T06:32:02;26.87;58.79
77839;SHT31;67034;43.226;27.932;2023-07-31T06:34:29;26.82;57.93
77839;SHT31;67034;43.226;27.932;2023-07-31T06:36:55;26.98;57.69
77839;SHT31;67034;43.226;27.932;2023-07-31T06:39:25;27.08;58.14
77839;SHT31;67034;43.226;27.932;2023-07-31T06:41:51;27.16;57.23
77839;SHT31;67034;43.226;27.932;2023-07-31T06:44:16;27.06;56.44
77839;SHT31;67034;43.226;27.932;2023-07-31T06:46:42;27.01;56.72
77839;SHT31;67034;43.226;27.932;2023-07-31T06:49:08;27.08;57.44
77839;SHT31;67034;43.226;27.932;2023-07-31T06:51:35;27.08;57.50
77839;SHT31;67034;43.226;27.932;2023-07-31T06:54:01;27.09;57.58
77839;SHT31;67034;43.226;27.932;2023-07-31T06:56:28;27.21;58.41
77839;SHT31;67034;43.226;27.932;2023-07-31T06:58:53;26.96;59.12
77839;SHT31;67034;43.226;27.932;2023-07-31T07:01:19;26.87;59.66
77839;SHT31;67034;43.226;27.932;2023-07-31T07:03:45;26.92;59.66
77839;SHT31;67034;43.226;27.932;2023-07-31T07:06:10;26.81;59.64
77839;SHT31;67034;43.226;27.932;2023-07-31T07:08:37;26.92;59.67
77839;SHT31;67034;43.226;27.932;2023-07-31T07:11:03;27.12;58.81
77839;SHT31;67034;43.226;27.932;2023-07-31T07:13:29;27.12;58.79
77839;SHT31;67034;43.226;27.932;2023-07-31T07:15:54;27.04;58.85
77839;SHT31;67034;43.226;27.932;2023-07-31T07:18:20;26.94;58.54
77839;SHT31;67034;43.226;27.932;2023-07-31T07:20:47;26.91;57.42
77839;SHT31;67034;43.226;27.932;2023-07-31T07:23:13;26.92;57.17
77839;SHT31;67034;43.226;27.932;2023-07-31T07:25:40;27.02;56.98
77839;SHT31;67034;43.226;27.932;2023-07-31T07:28:06;27.36;56.50
77839;SHT31;67034;43.226;27.932;2023-07-31T07:30:32;27.50;56.32
77839;SHT31;67034;43.226;27.932;2023-07-31T07:32:57;27.52;56.41
77839;SHT31;67034;43.226;27.932;2023-07-31T07:35:24;27.66;56.34
77839;SHT31;67034;43.226;27.932;2023-07-31T07:37:50;27.43;56.51
77839;SHT31;67034;43.226;27.932;2023-07-31T07:40:16;27.36;56.62
77839;SHT31;67034;43.226;27.932;2023-07-31T07:42:43;27.49;56.19
77839;SHT31;67034;43.226;27.932;2023-07-31T07:45:09;27.70;55.86
77839;SHT31;67034;43.226;27.932;2023-07-31T07:47:35;27.80;55.15
77839;SHT31;67034;43.226;27.932;2023-07-31T07:50:01;28.00;54.91
77839;SHT31;67034;43.226;27.932;2023-07-31T07:52:26;28.18;54.58
77839;SHT31;67034;43.226;27.932;2023-07-31T07:54:52;28.25;53.87
77839;SHT31;67034;43.226;27.932;2023-07-31T07:57:18;28.31;53.88
77839;SHT31;67034;43.226;27.932;2023-07-31T07:59:45;28.53;53.63
77839;SHT31;67034;43.226;27.932;2023-07-31T08:02:11;28.62;51.91
77839;SHT31;67034;43.226;27.932;2023-07-31T08:04:36;28.58;51.87
77839;SHT31;67034;43.226;27.932;2023-07-31T08:07:02;28.53;52.08
77839;SHT31;67034;43.226;27.932;2023-07-31T08:09:28;28.56;51.97
77839;SHT31;67034;43.226;27.932;2023-07-31T08:11:54;28.68;51.70
77839;SHT31;67034;43.226;27.932;2023-07-31T08:14:22;28.84;51.40
77839;SHT31;67034;43.226;27.932;2023-07-31T08:16:49;28.97;51.05
77839;SHT31;67034;43.226;27.932;2023-07-31T08:19:21;28.93;50.70
77839;SHT31;67034;43.226;27.932;2023-07-31T08:21:47;28.90;51.05
77839;SHT31;67034;43.226;27.932;2023-07-31T08:24:14;29.02;50.32
77839;SHT31;67034;43.226;27.932;2023-07-31T08:26:40;29.16;50.05
77839;SHT31;67034;43.226;27.932;2023-07-31T08:29:06;29.16;49.79
77839;SHT31;67034;43.226;27.932;2023-07-31T08:31:32;29.20;49.93
77839;SHT31;67034;43.226;27.932;2023-07-31T08:33:59;29.13;49.79
77839;SHT31;67034;43.226;27.932;2023-07-31T08:36:25;29.20;49.38
77839;SHT31;67034;43.226;27.932;2023-07-31T08:38:51;29.30;49.22
77839;SHT31;67034;43.226;27.932;2023-07-31T08:41:16;29.31;49.33
77839;SHT31;67034;43.226;27.932;2023-07-31T08:43:46;29.37;49.73
77839;SHT31;67034;43.226;27.932;2023-07-31T08:46:12;29.33;49.67
77839;SHT31;67034;43.226;27.932;2023-07-31T08:48:41;29.21;49.97
77839;SHT31;67034;43.226;27.932;2023-07-31T08:51:08;29.21;50.24
77839;SHT31;67034;43.226;27.932;2023-07-31T08:53:34;28.89;51.78
77839;SHT31;67034;43.226;27.932;2023-07-31T08:56:00;28.34;52.70
77839;SHT31;67034;43.226;27.932;2023-07-31T08:58:27;27.81;53.74
77839;SHT31;67034;43.226;27.932;2023-07-31T09:01:06;27.76;54.49
77839;SHT31;67034;43.226;27.932;2023-07-31T09:03:34;27.59;54.55
77839;SHT31;67034;43.226;27.932;2023-07-31T09:06:02;27.36;55.13
77839;SHT31;67034;43.226;27.932;2023-07-31T09:08:31;27.29;55.28
77839;SHT31;67034;43.226;27.932;2023-07-31T09:11:00;27.23;55.50
77839;SHT31;67034;43.226;27.932;2023-07-31T09:13:29;27.08;55.86
77839;SHT31;67034;43.226;27.932;2023-07-31T09:15:55;27.09;56.16
77839;SHT31;67034;43.226;27.932;2023-07-31T09:18:20;27.05;56.44
77839;SHT31;67034;43.226;27.932;2023-07-31T09:21:00;27.18;56.72
77839;SHT31;67034;43.226;27.932;2023-07-31T09:23:26;27.31;56.32
77839;SHT31;67034;43.226;27.932;2023-07-31T09:26:06;27.38;55.93
77839;SHT31;67034;43.226;27.932;2023-07-31T09:28:32;27.18;55.44
77839;SHT31;67034;43.226;27.932;2023-07-31T09:30:57;27.32;55.90
77839;SHT31;67034;43.226;27.932;2023-07-31T09:33:23;27.61;55.65
77839;SHT31;67034;43.226;27.932;2023-07-31T09:35:49;27.94;56.01
77839;SHT31;67034;43.226;27.932;2023-07-31T09:38:15;28.35;55.70
77839;SHT31;67034;43.226;27.932;2023-07-31T09:40:43;28.49;53.76
77839;SHT31;67034;43.226;27.932;2023-07-31T09:43:12;28.59;53.02
77839;SHT31;67034;43.226;27.932;2023-07-31T09:45:39;28.56;52.89
77839;SHT31;67034;43.226;27.932;2023-07-31T09:48:07;28.77;52.82
77839;SHT31;67034;43.226;27.932;2023-07-31T09:50:36;29.43;51.17
77839;SHT31;67034;43.226;27.932;2023-07-31T09:53:02;29.82;50.55
77839;SHT31;67034;43.226;27.932;2023-07-31T09:55:29;30.09;49.14
77839;SHT31;67034;43.226;27.932;2023-07-31T09:57:55;30.10;48.44
77839;SHT31;67034;43.226;27.932;2023-07-31T10:00:24;30.20;47.69
77839;SHT31;67034;43.226;27.932;2023-07-31T10:02:54;30.16;47.31
77839;SHT31;67034;43.226;27.932;2023-07-31T10:05:24;30.29;47.00
77839;SHT31;67034;43.226;27.932;2023-07-31T10:07:54;30.45;46.46
77839;SHT31;67034;43.226;27.932;2023-07-31T10:10:21;30.47;45.80
77839;SHT31;67034;43.226;27.932;2023-07-31T10:12:48;30.16;46.64
77839;SHT31;67034;43.226;27.932;2023-07-31T10:15:14;29.92;46.60
77839;SHT31;67034;43.226;27.932;2023-07-31T10:17:42;29.85;46.59
77839;SHT31;67034;43.226;27.932;2023-07-31T10:20:08;29.61;47.19
77839;SHT31;67034;43.226;27.932;2023-07-31T10:22:35;29.57;47.91
77839;SHT31;67034;43.226;27.932;2023-07-31T10:25:01;29.55;47.74
77839;SHT31;67034;43.226;27.932;2023-07-31T10:27:27;29.43;47.90
77839;SHT31;67034;43.226;27.932;2023-07-31T10:29:55;29.51;48.30
77839;SHT31;67034;43.226;27.932;2023-07-31T10:32:26;29.50;47.95
77839;SHT31;67034;43.226;27.932;2023-07-31T10:34:54;29.54;48.00
77839;SHT31;67034;43.226;27.932;2023-07-31T10:37:22;29.51;47.74
77839;SHT31;67034;43.226;27.932;2023-07-31T10:39:59;29.68;47.69
77839;SHT31;67034;43.226;27.932;2023-07-31T10:42:33;29.90;47.39
77839;SHT31;67034;43.226;27.932;2023-07-31T10:45:02;29.90;47.36
77839;SHT31;67034;43.226;27.932;2023-07-31T10:47:28;30.02;47.31
77839;SHT31;67034;43.226;27.932;2023-07-31T10:52:55;30.53;47.26
77839;SHT31;67034;43.226;27.932;2023-07-31T10:55:26;30.59;46.05
77839;SHT31;67034;43.226;27.932;2023-07-31T10:57:56;30.51;46.43
77839;SHT31;67034;43.226;27.932;2023-07-31T11:00:25;30.60;46.25
77839;SHT31;67034;43.226;27.932;2023-07-31T11:03:03;30.71;45.38
77839;SHT31;67034;43.226;27.932;2023-07-31T11:05:52;30.50;46.08
77839;SHT31;67034;43.226;27.932;2023-07-31T11:08:24;30.30;46.46
77839;SHT31;67034;43.226;27.932;2023-07-31T11:10:51;29.98;47.27
77839;SHT31;67034;43.226;27.932;2023-07-31T11:13:17;30.08;47.25
77839;SHT31;67034;43.226;27.932;2023-07-31T11:15:43;30.19;47.56
77839;SHT31;67034;43.226;27.932;2023-07-31T11:18:09;30.12;47.39
77839;SHT31;67034;43.226;27.932;2023-07-31T11:20:37;29.92;47.96
77839;SHT31;67034;43.226;27.932;2023-07-31T11:23:06;29.74;47.99
77839;SHT31;67034;43.226;27.932;2023-07-31T11:25:34;29.82;48.36
77839;SHT31;67034;43.226;27.932;2023-07-31T11:28:07;29.92;47.69
77839;SHT31;67034;43.226;27.932;2023-07-31T11:30:33;30.09;47.71
77839;SHT31;67034;43.226;27.932;2023-07-31T11:33:00;30.10;47.58
77839;SHT31;67034;43.226;27.932;2023-07-31T11:35:26;30.08;48.07
77839;SHT31;67034;43.226;27.932;2023-07-31T11:37:55;30.27;47.69
77839;SHT31;67034;43.226;27.932;2023-07-31T11:40:21;30.34;47.23
77839;SHT31;67034;43.226;27.932;2023-07-31T11:42:48;30.33;46.67
77839;SHT31;67034;43.226;27.932;2023-07-31T11:45:14;30.08;47.20
77839;SHT31;67034;43.226;27.932;2023-07-31T11:47:40;29.79;47.97
77839;SHT31;67034;43.226;27.932;2023-07-31T11:50:07;29.58;49.11
77839;SHT31;67034;43.226;27.932;2023-07-31T11:52:38;29.34;49.61
77839;SHT31;67034;43.226;27.932;2023-07-31T11:55:05;29.27;49.60
77839;SHT31;67034;43.226;27.932;2023-07-31T11:57:32;29.37;49.63
77839;SHT31;67034;43.226;27.932;2023-07-31T12:00:00;29.48;49.42
77839;SHT31;67034;43.226;27.932;2023-07-31T12:02:26;29.39;49.81
77839;SHT31;67034;43.226;27.932;2023-07-31T12:04:52;29.17;50.45
77839;SHT31;67034;43.226;27.932;2023-07-31T12:07:18;29.03;51.46
77839;SHT31;67034;43.226;27.932;2023-07-31T12:09:51;29.20;51.07
77839;SHT31;67034;43.226;27.932;2023-07-31T12:12:19;29.30;50.64
77839;SHT31;67034;43.226;27.932;2023-07-31T12:14:46;29.16;51.14
77839;SHT31;67034;43.226;27.932;2023-07-31T12:17:14;29.10;51.04
77839;SHT31;67034;43.226;27.932;2023-07-31T12:19:39;28.96;51.96
77839;SHT31;67034;43.226;27.932;2023-07-31T12:22:11;28.97;51.95
77839;SHT31;67034;43.226;27.932;2023-07-31T12:24:37;28.96;51.84
77839;SHT31;67034;43.226;27.932;2023-07-31T12:27:08;28.72;52.58
77839;SHT31;67034;43.226;27.932;2023-07-31T12:29:35;28.55;53.74
77839;SHT31;67034;43.226;27.932;2023-07-31T12:32:04;28.63;53.41
77839;SHT31;67034;43.226;27.932;2023-07-31T12:34:41;28.49;54.67
77839;SHT31;67034;43.226;27.932;2023-07-31T12:37:07;28.41;55.52
77839;SHT31;67034;43.226;27.932;2023-07-31T12:39:33;28.31;57.33
77839;SHT31;67034;43.226;27.932;2023-07-31T12:41:59;28.10;56.59
77839;SHT31;67034;43.226;27.932;2023-07-31T12:44:25;28.11;55.91
77839;SHT31;67034;43.226;27.932;2023-07-31T12:46:50;28.10;57.27
77839;SHT31;67034;43.226;27.932;2023-07-31T12:49:16;28.00;58.13
77839;SHT31;67034;43.226;27.932;2023-07-31T12:51:43;27.94;56.53
77839;SHT31;67034;43.226;27.932;2023-07-31T12:54:09;28.02;56.47
77839;SHT31;67034;43.226;27.932;2023-07-31T12:56:35;28.10;56.00
77839;SHT31;67034;43.226;27.932;2023-07-31T12:59:01;28.17;55.91
77839;SHT31;67034;43.226;27.932;2023-07-31T13:01:27;28.22;55.96
77839;SHT31;67034;43.226;27.932;2023-07-31T13:03:52;28.14;56.99
77839;SHT31;67034;43.226;27.932;2023-07-31T13:06:18;28.01;55.19
77839;SHT31;67034;43.226;27.932;2023-07-31T13:08:45;28.10;55.17
77839;SHT31;67034;43.226;27.932;2023-07-31T13:11:11;28.37;54.86
77839;SHT31;67034;43.226;27.932;2023-07-31T13:13:36;28.60;54.38
77839;SHT31;67034;43.226;27.932;2023-07-31T13:16:02;28.62;54.58
77839;SHT31;67034;43.226;27.932;2023-07-31T13:18:28;28.63;54.50
77839;SHT31;67034;43.226;27.932;2023-07-31T13:20:54;28.51;54.68
77839;SHT31;67034;43.226;27.932;2023-07-31T13:23:19;28.35;55.03
77839;SHT31;67034;43.226;27.932;2023-07-31T13:25:46;28.15;55.24
77839;SHT31;67034;43.226;27.932;2023-07-31T13:28:12;28.10;55.09
77839;SHT31;67034;43.226;27.932;2023-07-31T13:30:38;27.89;54.93
77839;SHT31;67034;43.226;27.932;2023-07-31T13:33:04;27.76;55.25
77839;SHT31;67034;43.226;27.932;2023-07-31T13:35:29;27.71;55.49
77839;SHT31;67034;43.226;27.932;2023-07-31T13:37:57;27.84;54.94
77839;SHT31;67034;43.226;27.932;2023-07-31T13:40:22;27.84;54.42
77839;SHT31;67034;43.226;27.932;2023-07-31T13:42:50;27.74;53.96
77839;SHT31;67034;43.226;27.932;2023-07-31T13:45:15;27.60;54.15
77839;SHT31;67034;43.226;27.932;2023-07-31T13:47:41;27.54;54.48
77839;SHT31;67034;43.226;27.932;2023-07-31T13:50:07;27.61;54.52
77839;SHT31;67034;43.226;27.932;2023-07-31T13:52:33;27.73;54.23
77839;SHT31;67034;43.226;27.932;2023-07-31T13:54:59;27.77;54.37
77839;SHT31;67034;43.226;27.932;2023-07-31T13:57:24;27.60;54.56
77839;SHT31;67034;43.226;27.932;2023-07-31T13:59:52;27.46;54.93
77839;SHT31;67034;43.226;27.932;2023-07-31T14:02:17;27.53;55.21
77839;SHT31;67034;43.226;27.932;2023-07-31T14:04:43;27.59;55.30
77839;SHT31;67034;43.226;27.932;2023-07-31T14:07:09;27.59;55.49
77839;SHT31;67034;43.226;27.932;2023-07-31T14:09:34;27.61;55.42
77839;SHT31;67034;43.226;27.932;2023-07-31T14:12:00;27.67;55.67
77839;SHT31;67034;43.226;27.932;2023-07-31T14:14:26;27.71;56.03
77839;SHT31;67034;43.226;27.932;2023-07-31T14:16:53;27.74;55.99
77839;SHT31;67034;43.226;27.932;2023-07-31T14:19:19;27.77;55.69
77839;SHT31;67034;43.226;27.932;2023-07-31T14:21:45;27.84;55.63
77839;SHT31;67034;43.226;27.932;2023-07-31T14:24:11;28.00;55.06
77839;SHT31;67034;43.226;27.932;2023-07-31T14:26:37;28.21;54.28
77839;SHT31;67034;43.226;27.932;2023-07-31T14:29:02;28.39;53.80
77839;SHT31;67034;43.226;27.932;2023-07-31T14:31:28;28.32;54.24
77839;SHT31;67034;43.226;27.932;2023-07-31T14:33:55;28.18;54.66
77839;SHT31;67034;43.226;27.932;2023-07-31T14:36:21;28.25;54.15
77839;SHT31;67034;43.226;27.932;2023-07-31T14:38:47;28.42;53.74
77839;SHT31;67034;43.226;27.932;2023-07-31T14:41:12;28.58;52.87
77839;SHT31;67034;43.226;27.932;2023-07-31T14:43:38;28.65;52.64
77839;SHT31;67034;43.226;27.932;2023-07-31T14:46:04;28.75;52.58
77839;SHT31;67034;43.226;27.932;2023-07-31T14:48:30;28.48;53.40
77839;SHT31;67034;43.226;27.932;2023-07-31T14:50:57;28.21;54.50
77839;SHT31;67034;43.226;27.932;2023-07-31T14:53:23;28.14;54.66
77839;SHT31;67034;43.226;27.932;2023-07-31T14:55:49;28.19;54.43
77839;SHT31;67034;43.226;27.932;2023-07-31T14:58:14;28.28;54.09
77839;SHT31;67034;43.226;27.932;2023-07-31T15:00:42;28.21;54.47
77839;SHT31;67034;43.226;27.932;2023-07-31T15:03:08;28.10;54.32
77839;SHT31;67034;43.226;27.932;2023-07-31T15:05:33;27.80;54.76
77839;SHT31;67034;43.226;27.932;2023-07-31T15:08:00;27.63;55.51
77839;SHT31;67034;43.226;27.932;2023-07-31T15:10:26;27.46;55.92
77839;SHT31;67034;43.226;27.932;2023-07-31T15:12:55;27.35;56.53
77839;SHT31;67034;43.226;27.932;2023-07-31T15:15:21;27.32;56.79